sensor_id;sensor_type;location;lat;lon;timestamp;P1;durP1;ratioP1;P2;durP2;ratioP2
5026;SDS011;2532;52.480;13.354;2023-04-24T04:01:09;8.80;;;7.90;;
5026;SDS011;2532;52.480;13.354;2023-04-24T04:03:36;9.33;;;7.43;;
5026;SDS011;2532;52.480;13.354;2023-04-24T04:06:04;10.00;;;8.00;;
5026;SDS011;2532;52.480;13.354;2023-04-24T04:08:31;9.90;;;7.57;;
5026;SDS011;2532;52.480;13.354;2023-04-24T04:10:58;8.03;;;7.23;;
5026;SDS011;2532;52.480;13.354;2023-04-24T04:13:25;12.03;;;8.90;;
5026;SDS011;2532;52.480;13.354;2023-04-24T04:15:52;11.13;;;9.20;;
5026;SDS011;2532;52.480;13.354;2023-04-24T04:18:20;13.27;;;8.40;;
5026;SDS011;2532;52.480;13.354;2023-04-24T04:20:47;8.73;;;7.83;;
5026;SDS011;2532;52.480;13.354;2023-04-24T04:23:14;10.80;;;8.20;;
5026;SDS011;2532;52.480;13.354;2023-04-24T04:25:41;13.03;;;9.53;;
5026;SDS011;2532;52.480;13.354;2023-04-24T04:28:08;9.00;;;7.60;;
5026;SDS011;2532;52.480;13.354;2023-04-24T04:30:35;11.73;;;8.50;;
5026;SDS011;2532;52.480;13.354;2023-04-24T04:33:03;10.40;;;7.90;;
5026;SDS011;2532;52.480;13.354;2023-04-24T04:35:31;9.43;;;7.50;;
5026;SDS011;2532;52.480;13.354;2023-04-24T04:37:58;12.07;;;7.17;;
5026;SDS011;2532;52.480;13.354;2023-04-24T04:40:25;9.90;;;7.97;;
5026;SDS011;2532;52.480;13.354;2023-04-24T04:42:53;12.53;;;8.70;;
5026;SDS011;2532;52.480;13.354;2023-04-24T04:45:20;12.27;;;8.23;;
5026;SDS011;2532;52.480;13.354;2023-04-24T04:47:49;9.57;;;6.90;;
5026;SDS011;2532;52.480;13.354;2023-04-24T04:50:16;12.27;;;7.40;;
5026;SDS011;2532;52.480;13.354;2023-04-24T04:52:45;10.33;;;7.90;;
5026;SDS011;2532;52.480;13.354;2023-04-24T04:55:12;9.63;;;8.40;;
5026;SDS011;2532;52.480;13.354;2023-04-24T04:57:39;8.63;;;7.43;;
5026;SDS011;2532;52.480;13.354;2023-04-24T05:00:07;10.23;;;7.37;;
5026;SDS011;2532;52.480;13.354;2023-04-24T05:02:36;10.43;;;7.60;;
5026;SDS011;2532;52.480;13.354;2023-04-24T05:05:03;8.23;;;6.73;;
5026;SDS011;2532;52.480;13.354;2023-04-24T05:07:30;12.90;;;6.90;;
5026;SDS011;2532;52.480;13.354;2023-04-24T05:09:59;8.30;;;7.50;;
5026;SDS011;2532;52.480;13.354;2023-04-24T05:12:26;8.70;;;7.00;;
5026;SDS011;2532;52.480;13.354;2023-04-24T05:14:53;9.20;;;6.30;;
5026;SDS011;2532;52.480;13.354;2023-04-24T05:17:19;7.60;;;6.20;;
5026;SDS011;2532;52.480;13.354;2023-04-24T05:19:46;8.93;;;6.00;;
5026;SDS011;2532;52.480;13.354;2023-04-24T05:22:13;7.80;;;6.03;;
5026;SDS011;2532;52.480;13.354;2023-04-24T05:24:40;8.83;;;5.53;;
5026;SDS011;2532;52.480;13.354;2023-04-24T05:27:08;6.10;;;5.50;;
5026;SDS011;2532;52.480;13.354;2023-04-24T05:29:35;8.27;;;5.83;;
5026;SDS011;2532;52.480;13.354;2023-04-24T05:32:02;6.30;;;5.40;;
5026;SDS011;2532;52.480;13.354;2023-04-24T05:34:29;7.23;;;4.87;;
5026;SDS011;2532;52.480;13.354;2023-04-24T05:36:56;8.63;;;5.63;;
5026;SDS011;2532;52.480;13.354;2023-04-24T05:39:23;8.53;;;6.73;;
5026;SDS011;2532;52.480;13.354;2023-04-24T05:41:50;7.63;;;5.40;;
5026;SDS011;2532;52.480;13.354;2023-04-24T05:44:19;9.63;;;5.23;;
5026;SDS011;2532;52.480;13.354;2023-04-24T05:46:45;6.27;;;4.93;;
5026;SDS011;2532;52.480;13.354;2023-04-24T05:49:12;5.87;;;4.83;;
5026;SDS011;2532;52.480;13.354;2023-04-24T05:51:39;13.80;;;5.90;;
5026;SDS011;2532;52.480;13.354;2023-04-24T05:54:06;5.33;;;4.77;;
5026;SDS011;2532;52.480;13.354;2023-04-24T05:56:33;5.37;;;4.83;;
5026;SDS011;2532;52.480;13.354;2023-04-24T05:59:00;6.43;;;5.23;;
5026;SDS011;2532;52.480;13.354;2023-04-24T06:01:29;7.93;;;5.33;;
5026;SDS011;2532;52.480;13.354;2023-04-24T06:03:57;6.70;;;4.90;;
5026;SDS011;2532;52.480;13.354;2023-04-24T06:06:24;5.90;;;4.83;;
5026;SDS011;2532;52.480;13.354;2023-04-24T06:08:52;6.20;;;4.20;;
5026;SDS011;2532;52.480;13.354;2023-04-24T06:11:19;6.07;;;4.80;;
5026;SDS011;2532;52.480;13.354;2023-04-24T06:13:46;7.40;;;5.20;;
5026;SDS011;2532;52.480;13.354;2023-04-24T06:16:13;8.77;;;5.73;;
5026;SDS011;2532;52.480;13.354;2023-04-24T06:18:41;6.87;;;4.90;;
5026;SDS011;2532;52.480;13.354;2023-04-24T06:21:08;7.50;;;6.00;;
5026;SDS011;2532;52.480;13.354;2023-04-24T06:23:35;5.10;;;4.33;;
5026;SDS011;2532;52.480;13.354;2023-04-24T06:26:02;5.00;;;3.97;;
5026;SDS011;2532;52.480;13.354;2023-04-24T06:28:29;5.40;;;4.73;;
5026;SDS011;2532;52.480;13.354;2023-04-24T06:30:56;4.23;;;3.83;;
5026;SDS011;2532;52.480;13.354;2023-04-24T06:33:23;5.40;;;4.33;;
5026;SDS011;2532;52.480;13.354;2023-04-24T06:35:51;4.73;;;4.07;;
5026;SDS011;2532;52.480;13.354;2023-04-24T06:38:18;6.27;;;5.03;;
5026;SDS011;2532;52.480;13.354;2023-04-24T06:40:45;6.40;;;3.43;;
5026;SDS011;2532;52.480;13.354;2023-04-24T06:43:12;5.13;;;3.80;;
5026;SDS011;2532;52.480;13.354;2023-04-24T06:45:39;4.70;;;3.53;;
5026;SDS011;2532;52.480;13.354;2023-04-24T06:48:08;6.73;;;3.53;;
5026;SDS011;2532;52.480;13.354;2023-04-24T06:50:35;3.30;;;3.00;;
5026;SDS011;2532;52.480;13.354;2023-04-24T06:53:03;9.90;;;4.17;;
5026;SDS011;2532;52.480;13.354;2023-04-24T06:55:30;4.57;;;3.53;;
5026;SDS011;2532;52.480;13.354;2023-04-24T06:57:57;11.37;;;6.10;;
5026;SDS011;2532;52.480;13.354;2023-04-24T07:00:24;4.13;;;3.73;;
5026;SDS011;2532;52.480;13.354;2023-04-24T07:02:51;6.30;;;3.07;;
5026;SDS011;2532;52.480;13.354;2023-04-24T07:05:18;5.73;;;3.40;;
5026;SDS011;2532;52.480;13.354;2023-04-24T07:07:46;3.87;;;3.37;;
5026;SDS011;2532;52.480;13.354;2023-04-24T07:10:15;4.57;;;3.23;;
5026;SDS011;2532;52.480;13.354;2023-04-24T07:12:43;4.73;;;3.50;;
5026;SDS011;2532;52.480;13.354;2023-04-24T07:15:10;3.37;;;3.07;;
5026;SDS011;2532;52.480;13.354;2023-04-24T07:17:38;4.60;;;3.47;;
5026;SDS011;2532;52.480;13.354;2023-04-24T07:20:09;5.60;;;3.00;;
5026;SDS011;2532;52.480;13.354;2023-04-24T07:22:37;3.73;;;3.30;;
5026;SDS011;2532;52.480;13.354;2023-04-24T07:25:04;3.40;;;3.10;;
5026;SDS011;2532;52.480;13.354;2023-04-24T07:27:33;5.93;;;2.93;;
5026;SDS011;2532;52.480;13.354;2023-04-24T07:30:01;3.27;;;2.97;;
5026;SDS011;2532;52.480;13.354;2023-04-24T07:32:28;5.90;;;4.13;;
5026;SDS011;2532;52.480;13.354;2023-04-24T07:34:55;3.40;;;2.70;;
5026;SDS011;2532;52.480;13.354;2023-04-24T07:37:22;2.73;;;2.37;;
5026;SDS011;2532;52.480;13.354;2023-04-24T07:39:49;4.40;;;3.60;;
5026;SDS011;2532;52.480;13.354;2023-04-24T07:42:16;6.90;;;3.07;;
5026;SDS011;2532;52.480;13.354;2023-04-24T07:44:44;3.10;;;2.80;;
5026;SDS011;2532;52.480;13.354;2023-04-24T07:47:12;4.70;;;2.93;;
5026;SDS011;2532;52.480;13.354;2023-04-24T07:49:40;5.30;;;2.30;;
5026;SDS011;2532;52.480;13.354;2023-04-24T07:52:07;4.13;;;2.57;;
5026;SDS011;2532;52.480;13.354;2023-04-24T07:54:34;3.33;;;2.90;;
5026;SDS011;2532;52.480;13.354;2023-04-24T07:57:02;2.83;;;2.30;;
5026;SDS011;2532;52.480;13.354;2023-04-24T07:59:29;5.90;;;2.70;;
5026;SDS011;2532;52.480;13.354;2023-04-24T08:01:57;2.90;;;2.50;;
5026;SDS011;2532;52.480;13.354;2023-04-24T08:04:26;2.77;;;2.30;;
5026;SDS011;2532;52.480;13.354;2023-04-24T08:06:53;2.40;;;2.20;;
5026;SDS011;2532;52.480;13.354;2023-04-24T08:09:20;2.37;;;2.17;;
5026;SDS011;2532;52.480;13.354;2023-04-24T08:11:47;2.50;;;2.30;;
5026;SDS011;2532;52.480;13.354;2023-04-24T08:14:14;2.50;;;2.30;;
5026;SDS011;2532;52.480;13.354;2023-04-24T08:16:40;2.50;;;2.30;;
5026;SDS011;2532;52.480;13.354;2023-04-24T08:19:09;2.83;;;2.40;;
5026;SDS011;2532;52.480;13.354;2023-04-24T08:21:36;3.33;;;2.90;;
5026;SDS011;2532;52.480;13.354;2023-04-24T08:24:03;4.73;;;2.50;;
5026;SDS011;2532;52.480;13.354;2023-04-24T08:26:32;3.87;;;2.20;;
5026;SDS011;2532;52.480;13.354;2023-04-24T08:28:59;3.40;;;2.53;;
5026;SDS011;2532;52.480;13.354;2023-04-24T08:31:26;2.80;;;2.60;;
5026;SDS011;2532;52.480;13.354;2023-04-24T08:33:53;2.73;;;2.40;;
5026;SDS011;2532;52.480;13.354;2023-04-24T08:36:22;3.57;;;2.37;;
5026;SDS011;2532;52.480;13.354;2023-04-24T08:38:48;2.80;;;2.30;;
5026;SDS011;2532;52.480;13.354;2023-04-24T08:41:15;2.40;;;2.20;;
5026;SDS011;2532;52.480;13.354;2023-04-24T08:43:44;2.33;;;2.13;;
5026;SDS011;2532;52.480;13.354;2023-04-24T08:46:13;5.90;;;2.53;;
5026;SDS011;2532;52.480;13.354;2023-04-24T08:48:41;4.00;;;2.50;;
5026;SDS011;2532;52.480;13.354;2023-04-24T08:51:09;2.60;;;2.40;;
5026;SDS011;2532;52.480;13.354;2023-04-24T08:53:37;3.50;;;2.47;;
5026;SDS011;2532;52.480;13.354;2023-04-24T08:56:04;3.23;;;2.60;;
5026;SDS011;2532;52.480;13.354;2023-04-24T08:58:32;2.70;;;2.43;;
5026;SDS011;2532;52.480;13.354;2023-04-24T09:00:59;3.17;;;2.50;;
5026;SDS011;2532;52.480;13.354;2023-04-24T09:03:28;7.27;;;3.10;;
5026;SDS011;2532;52.480;13.354;2023-04-24T09:05:55;4.43;;;2.57;;
5026;SDS011;2532;52.480;13.354;2023-04-24T09:08:23;2.90;;;2.60;;
5026;SDS011;2532;52.480;13.354;2023-04-24T09:10:53;3.90;;;3.23;;
5026;SDS011;2532;52.480;13.354;2023-04-24T09:13:20;4.27;;;2.63;;
5026;SDS011;2532;52.480;13.354;2023-04-24T09:15:47;3.37;;;2.73;;
5026;SDS011;2532;52.480;13.354;2023-04-24T09:18:14;3.90;;;2.80;;
5026;SDS011;2532;52.480;13.354;2023-04-24T09:20:56;5.20;;;2.80;;
5026;SDS011;2532;52.480;13.354;2023-04-24T09:23:25;2.83;;;2.63;;
5026;SDS011;2532;52.480;13.354;2023-04-24T09:25:55;2.77;;;2.57;;
5026;SDS011;2532;52.480;13.354;2023-04-24T09:28:25;4.47;;;2.83;;
5026;SDS011;2532;52.480;13.354;2023-04-24T09:31:06;4.70;;;2.60;;
5026;SDS011;2532;52.480;13.354;2023-04-24T09:33:35;3.30;;;2.47;;
5026;SDS011;2532;52.480;13.354;2023-04-24T09:36:02;6.53;;;2.87;;
5026;SDS011;2532;52.480;13.354;2023-04-24T09:38:33;5.40;;;2.87;;
5026;SDS011;2532;52.480;13.354;2023-04-24T09:41:04;3.50;;;2.97;;
5026;SDS011;2532;52.480;13.354;2023-04-24T09:43:32;3.67;;;2.90;;
5026;SDS011;2532;52.480;13.354;2023-04-24T09:46:07;6.00;;;2.30;;
5026;SDS011;2532;52.480;13.354;2023-04-24T09:48:35;4.07;;;2.60;;
5026;SDS011;2532;52.480;13.354;2023-04-24T09:51:04;2.50;;;2.30;;
5026;SDS011;2532;52.480;13.354;2023-04-24T09:53:35;6.43;;;2.60;;
5026;SDS011;2532;52.480;13.354;2023-04-24T09:56:06;2.80;;;2.30;;
5026;SDS011;2532;52.480;13.354;2023-04-24T09:58:34;2.80;;;2.50;;
5026;SDS011;2532;52.480;13.354;2023-04-24T10:01:02;6.10;;;2.63;;
5026;SDS011;2532;52.480;13.354;2023-04-24T10:03:29;3.80;;;2.40;;
5026;SDS011;2532;52.480;13.354;2023-04-24T10:05:58;3.70;;;2.73;;
5026;SDS011;2532;52.480;13.354;2023-04-24T10:08:25;4.33;;;2.73;;
5026;SDS011;2532;52.480;13.354;2023-04-24T10:10:52;4.20;;;2.93;;
5026;SDS011;2532;52.480;13.354;2023-04-24T10:13:20;2.30;;;2.10;;
5026;SDS011;2532;52.480;13.354;2023-04-24T10:15:47;5.87;;;3.30;;
5026;SDS011;2532;52.480;13.354;2023-04-24T10:18:15;4.90;;;3.63;;
5026;SDS011;2532;52.480;13.354;2023-04-24T10:20:42;3.20;;;2.40;;
5026;SDS011;2532;52.480;13.354;2023-04-24T10:23:09;3.20;;;2.40;;
5026;SDS011;2532;52.480;13.354;2023-04-24T10:25:36;2.93;;;2.50;;
5026;SDS011;2532;52.480;13.354;2023-04-24T10:28:03;4.70;;;2.60;;
5026;SDS011;2532;52.480;13.354;2023-04-24T10:30:33;3.13;;;2.37;;
5026;SDS011;2532;52.480;13.354;2023-04-24T10:33:01;7.23;;;2.73;;
5026;SDS011;2532;52.480;13.354;2023-04-24T10:35:30;5.87;;;2.90;;
5026;SDS011;2532;52.480;13.354;2023-04-24T10:37:59;3.50;;;2.43;;
5026;SDS011;2532;52.480;13.354;2023-04-24T10:40:30;5.57;;;2.90;;
5026;SDS011;2532;52.480;13.354;2023-04-24T10:42:59;3.63;;;2.23;;
5026;SDS011;2532;52.480;13.354;2023-04-24T10:45:28;5.13;;;2.70;;
5026;SDS011;2532;52.480;13.354;2023-04-24T10:47:59;3.73;;;2.40;;
5026;SDS011;2532;52.480;13.354;2023-04-24T10:50:29;3.90;;;2.30;;
5026;SDS011;2532;52.480;13.354;2023-04-24T10:53:11;7.13;;;2.53;;
5026;SDS011;2532;52.480;13.354;2023-04-24T10:55:41;13.17;;;3.00;;
5026;SDS011;2532;52.480;13.354;2023-04-24T10:58:09;6.90;;;3.27;;
5026;SDS011;2532;52.480;13.354;2023-04-24T11:00:37;4.63;;;2.90;;
5026;SDS011;2532;52.480;13.354;2023-04-24T11:03:06;3.03;;;2.50;;
5026;SDS011;2532;52.480;13.354;2023-04-24T11:05:52;4.73;;;2.80;;
5026;SDS011;2532;52.480;13.354;2023-04-24T11:08:25;6.40;;;3.10;;
5026;SDS011;2532;52.480;13.354;2023-04-24T11:10:54;4.10;;;2.67;;
5026;SDS011;2532;52.480;13.354;2023-04-24T11:13:23;3.80;;;3.07;;
5026;SDS011;2532;52.480;13.354;2023-04-24T11:19:00;4.23;;;2.90;;
5026;SDS011;2532;52.480;13.354;2023-04-24T11:21:30;4.83;;;2.57;;
5026;SDS011;2532;52.480;13.354;2023-04-24T11:23:58;4.50;;;2.57;;
5026;SDS011;2532;52.480;13.354;2023-04-24T11:26:45;3.93;;;3.20;;
5026;SDS011;2532;52.480;13.354;2023-04-24T11:29:12;3.20;;;2.70;;
5026;SDS011;2532;52.480;13.354;2023-04-24T11:31:39;4.30;;;2.90;;
5026;SDS011;2532;52.480;13.354;2023-04-24T11:34:11;4.30;;;3.27;;
5026;SDS011;2532;52.480;13.354;2023-04-24T11:36:39;5.10;;;2.87;;
5026;SDS011;2532;52.480;13.354;2023-04-24T11:39:08;4.20;;;2.30;;
5026;SDS011;2532;52.480;13.354;2023-04-24T11:41:36;3.10;;;2.73;;
5026;SDS011;2532;52.480;13.354;2023-04-24T11:44:05;4.60;;;2.60;;
5026;SDS011;2532;52.480;13.354;2023-04-24T11:46:33;4.70;;;2.03;;
5026;SDS011;2532;52.480;13.354;2023-04-24T11:49:00;4.10;;;2.70;;
5026;SDS011;2532;52.480;13.354;2023-04-24T11:51:28;4.60;;;2.90;;
5026;SDS011;2532;52.480;13.354;2023-04-24T11:53:56;3.50;;;2.50;;
5026;SDS011;2532;52.480;13.354;2023-04-24T11:56:23;4.60;;;2.67;;
5026;SDS011;2532;52.480;13.354;2023-04-24T11:58:51;7.63;;;3.03;;
5026;SDS011;2532;52.480;13.354;2023-04-24T12:01:19;4.90;;;3.10;;
5026;SDS011;2532;52.480;13.354;2023-04-24T12:03:47;6.10;;;3.70;;
5026;SDS011;2532;52.480;13.354;2023-04-24T12:06:16;9.97;;;3.47;;
5026;SDS011;2532;52.480;13.354;2023-04-24T12:08:47;8.67;;;2.97;;
5026;SDS011;2532;52.480;13.354;2023-04-24T12:11:15;3.17;;;2.40;;
5026;SDS011;2532;52.480;13.354;2023-04-24T12:13:45;3.47;;;3.00;;
5026;SDS011;2532;52.480;13.354;2023-04-24T12:16:12;5.97;;;3.70;;
5026;SDS011;2532;52.480;13.354;2023-04-24T12:18:43;3.70;;;2.80;;
5026;SDS011;2532;52.480;13.354;2023-04-24T12:21:17;8.90;;;3.10;;
5026;SDS011;2532;52.480;13.354;2023-04-24T12:23:48;4.13;;;2.67;;
5026;SDS011;2532;52.480;13.354;2023-04-24T12:26:16;2.90;;;2.50;;
5026;SDS011;2532;52.480;13.354;2023-04-24T12:28:46;5.30;;;2.20;;
5026;SDS011;2532;52.480;13.354;2023-04-24T12:31:14;3.30;;;2.23;;
5026;SDS011;2532;52.480;13.354;2023-04-24T12:33:42;6.37;;;3.13;;
5026;SDS011;2532;52.480;13.354;2023-04-24T12:36:10;4.10;;;2.90;;
5026;SDS011;2532;52.480;13.354;2023-04-24T12:38:38;5.33;;;2.60;;
5026;SDS011;2532;52.480;13.354;2023-04-24T12:41:08;6.77;;;2.80;;
5026;SDS011;2532;52.480;13.354;2023-04-24T12:43:36;5.20;;;3.00;;
5026;SDS011;2532;52.480;13.354;2023-04-24T12:46:03;3.10;;;2.67;;
5026;SDS011;2532;52.480;13.354;2023-04-24T12:48:31;3.77;;;2.67;;
5026;SDS011;2532;52.480;13.354;2023-04-24T12:50:58;3.30;;;2.70;;
5026;SDS011;2532;52.480;13.354;2023-04-24T12:53:27;4.20;;;2.40;;
5026;SDS011;2532;52.480;13.354;2023-04-24T12:55:56;7.90;;;3.03;;
5026;SDS011;2532;52.480;13.354;2023-04-24T12:58:24;4.07;;;2.57;;
5026;SDS011;2532;52.480;13.354;2023-04-24T13:00:51;6.43;;;2.83;;
5026;SDS011;2532;52.480;13.354;2023-04-24T13:03:18;3.60;;;2.30;;
5026;SDS011;2532;52.480;13.354;2023-04-24T13:05:47;2.90;;;2.60;;
5026;SDS011;2532;52.480;13.354;2023-04-24T13:08:14;3.87;;;2.73;;
5026;SDS011;2532;52.480;13.354;2023-04-24T13:10:41;5.83;;;2.87;;
5026;SDS011;2532;52.480;13.354;2023-04-24T13:13:08;3.77;;;2.80;;
5026;SDS011;2532;52.480;13.354;2023-04-24T13:15:36;3.00;;;2.67;;
5026;SDS011;2532;52.480;13.354;2023-04-24T13:18:04;8.23;;;4.40;;
5026;SDS011;2532;52.480;13.354;2023-04-24T13:20:30;4.10;;;2.90;;
5026;SDS011;2532;52.480;13.354;2023-04-24T13:22:57;4.50;;;3.03;;
5026;SDS011;2532;52.480;13.354;2023-04-24T13:25:25;6.30;;;2.70;;
5026;SDS011;2532;52.480;13.354;2023-04-24T13:27:52;4.80;;;2.70;;
5026;SDS011;2532;52.480;13.354;2023-04-24T13:30:19;9.33;;;2.77;;
5026;SDS011;2532;52.480;13.354;2023-04-24T13:32:47;4.23;;;3.63;;
5026;SDS011;2532;52.480;13.354;2023-04-24T13:35:14;3.57;;;2.30;;
5026;SDS011;2532;52.480;13.354;2023-04-24T13:37:41;5.87;;;2.17;;
5026;SDS011;2532;52.480;13.354;2023-04-24T13:40:08;4.30;;;2.60;;
5026;SDS011;2532;52.480;13.354;2023-04-24T13:42:36;4.90;;;2.70;;
5026;SDS011;2532;52.480;13.354;2023-04-24T13:45:03;4.03;;;2.77;;
5026;SDS011;2532;52.480;13.354;2023-04-24T13:47:31;8.53;;;3.47;;
5026;SDS011;2532;52.480;13.354;2023-04-24T13:49:59;6.43;;;2.87;;
5026;SDS011;2532;52.480;13.354;2023-04-24T13:52:26;3.90;;;2.87;;
5026;SDS011;2532;52.480;13.354;2023-04-24T13:54:53;12.03;;;3.47;;
5026;SDS011;2532;52.480;13.354;2023-04-24T13:57:20;3.97;;;2.20;;
5026;SDS011;2532;52.480;13.354;2023-04-24T13:59:47;3.10;;;2.60;;
5026;SDS011;2532;52.480;13.354;2023-04-24T14:02:14;4.63;;;2.60;;
5026;SDS011;2532;52.480;13.354;2023-04-24T14:04:41;4.87;;;3.17;;
5026;SDS011;2532;52.480;13.354;2023-04-24T14:07:09;4.93;;;3.57;;
5026;SDS011;2532;52.480;13.354;2023-04-24T14:09:36;3.30;;;3.00;;
5026;SDS011;2532;52.480;13.354;2023-04-24T14:12:03;3.00;;;2.70;;
5026;SDS011;2532;52.480;13.354;2023-04-24T14:14:32;4.83;;;2.97;;
5026;SDS011;2532;52.480;13.354;2023-04-24T14:16:59;6.93;;;3.13;;
5026;SDS011;2532;52.480;13.354;2023-04-24T14:19:25;2.93;;;2.37;;
5026;SDS011;2532;52.480;13.354;2023-04-24T14:21:52;3.33;;;3.03;;
5026;SDS011;2532;52.480;13.354;2023-04-24T14:24:22;5.47;;;3.13;;
5026;SDS011;2532;52.480;13.354;2023-04-24T14:26:48;4.10;;;2.80;;
5026;SDS011;2532;52.480;13.354;2023-04-24T14:29:15;5.43;;;3.20;;
5026;SDS011;2532;52.480;13.354;2023-04-24T14:31:42;4.70;;;2.60;;
5026;SDS011;2532;52.480;13.354;2023-04-24T14:34:09;3.47;;;3.17;;
5026;SDS011;2532;52.480;13.354;2023-04-24T14:36:36;3.53;;;3.20;;
5026;SDS011;2532;52.480;13.354;2023-04-24T14:39:03;3.77;;;3.40;;
5026;SDS011;2532;52.480;13.354;2023-04-24T14:41:33;2.90;;;2.63;;
5026;SDS011;2532;52.480;13.354;2023-04-24T14:44:00;3.23;;;2.80;;
5026;SDS011;2532;52.480;13.354;2023-04-24T14:46:28;3.20;;;2.90;;
5026;SDS011;2532;52.480;13.354;2023-04-24T14:48:56;6.87;;;3.00;;
5026;SDS011;2532;52.480;13.354;2023-04-24T14:51:23;3.03;;;2.80;;
5026;SDS011;2532;52.480;13.354;2023-04-24T14:53:50;7.83;;;2.90;;
5026;SDS011;2532;52.480;13.354;2023-04-24T14:56:17;2.83;;;2.53;;
5026;SDS011;2532;52.480;13.354;2023-04-24T14:58:46;3.67;;;3.23;;
5026;SDS011;2532;52.480;13.354;2023-04-24T15:01:13;5.20;;;2.83;;
5026;SDS011;2532;52.480;13.354;2023-04-24T15:03:39;8.60;;;2.77;;
5026;SDS011;2532;52.480;13.354;2023-04-24T15:06:06;5.73;;;3.00;;
5026;SDS011;2532;52.480;13.354;2023-04-24T15:08:33;11.77;;;3.23;;
5026;SDS011;2532;52.480;13.354;2023-04-24T15:11:01;3.47;;;2.83;;
5026;SDS011;2532;52.480;13.354;2023-04-24T15:13:28;3.77;;;3.10;;
5026;SDS011;2532;52.480;13.354;2023-04-24T15:15:56;3.77;;;3.23;;
5026;SDS011;2532;52.480;13.354;2023-04-24T15:18:23;7.13;;;3.40;;
5026;SDS011;2532;52.480;13.354;2023-04-24T15:20:50;6.53;;;3.43;;
5026;SDS011;2532;52.480;13.354;2023-04-24T15:23:17;3.00;;;2.70;;
5026;SDS011;2532;52.480;13.354;2023-04-24T15:25:43;4.33;;;3.47;;
5026;SDS011;2532;52.480;13.354;2023-04-24T15:28:10;6.33;;;3.57;;
5026;SDS011;2532;52.480;13.354;2023-04-24T15:30:37;3.90;;;3.10;;
5026;SDS011;2532;52.480;13.354;2023-04-24T15:33:06;4.27;;;3.13;;
5026;SDS011;2532;52.480;13.354;2023-04-24T15:35:33;3.57;;;2.70;;
5026;SDS011;2532;52.480;13.354;2023-04-24T15:38:00;3.30;;;3.00;;
5026;SDS011;2532;52.480;13.354;2023-04-24T15:40:28;3.90;;;3.17;;
5026;SDS011;2532;52.480;13.354;2023-04-24T15:42:55;3.33;;;3.03;;
5026;SDS011;2532;52.480;13.354;2023-04-24T15:45:22;3.83;;;3.13;;
5026;SDS011;2532;52.480;13.354;2023-04-24T15:47:50;2.93;;;2.63;;
5026;SDS011;2532;52.480;13.354;2023-04-24T15:50:18;3.57;;;3.27;;
5026;SDS011;2532;52.480;13.354;2023-04-24T15:52:46;4.67;;;2.70;;
5026;SDS011;2532;52.480;13.354;2023-04-24T15:55:13;4.53;;;3.33;;
5026;SDS011;2532;52.480;13.354;2023-04-24T15:57:40;3.90;;;3.10;;
5026;SDS011;2532;52.480;13.354;2023-04-24T16:00:09;7.80;;;4.00;;
5026;SDS011;2532;52.480;13.354;2023-04-24T16:02:36;8.83;;;3.00;;
5026;SDS011;2532;52.480;13.354;2023-04-24T16:05:04;5.00;;;4.20;;
5026;SDS011;2532;52.480;13.354;2023-04-24T16:07:33;6.70;;;3.50;;
5026;SDS011;2532;52.480;13.354;2023-04-24T16:10:00;7.67;;;3.23;;
5026;SDS011;2532;52.480;13.354;2023-04-24T16:12:27;3.40;;;3.10;;
5026;SDS011;2532;52.480;13.354;2023-04-24T16:14:54;3.97;;;3.20;;
5026;SDS011;2532;52.480;13.354;2023-04-24T16:17:21;4.70;;;3.20;;
5026;SDS011;2532;52.480;13.354;2023-04-24T16:19:48;3.33;;;2.93;;
5026;SDS011;2532;52.480;13.354;2023-04-24T16:22:15;5.37;;;4.03;;
5026;SDS011;2532;52.480;13.354;2023-04-24T16:24:43;3.37;;;3.07;;
5026;SDS011;2532;52.480;13.354;2023-04-24T16:27:11;4.27;;;2.87;;
5026;SDS011;2532;52.480;13.354;2023-04-24T16:29:39;3.90;;;3.37;;
5026;SDS011;2532;52.480;13.354;2023-04-24T16:32:06;3.53;;;3.00;;
5026;SDS011;2532;52.480;13.354;2023-04-24T16:34:34;6.20;;;3.60;;
5026;SDS011;2532;52.480;13.354;2023-04-24T16:37:00;3.30;;;3.00;;
5026;SDS011;2532;52.480;13.354;2023-04-24T16:39:28;5.60;;;3.43;;
5026;SDS011;2532;52.480;13.354;2023-04-24T16:41:56;3.50;;;3.20;;
5026;SDS011;2532;52.480;13.354;2023-04-24T16:44:23;3.80;;;2.93;;
5026;SDS011;2532;52.480;13.354;2023-04-24T16:46:50;4.13;;;3.70;;
5026;SDS011;2532;52.480;13.354;2023-04-24T16:49:17;5.50;;;3.23;;
5026;SDS011;2532;52.480;13.354;2023-04-24T16:51:44;7.17;;;4.87;;
5026;SDS011;2532;52.480;13.354;2023-04-24T16:54:11;4.97;;;3.20;;
5026;SDS011;2532;52.480;13.354;2023-04-24T16:56:37;5.93;;;3.10;;
5026;SDS011;2532;52.480;13.354;2023-04-24T16:59:06;3.20;;;2.90;;
5026;SDS011;2532;52.480;13.354;2023-04-24T17:01:33;3.00;;;2.73;;
5026;SDS011;2532;52.480;13.354;2023-04-24T17:04:00;4.77;;;3.50;;
5026;SDS011;2532;52.480;13.354;2023-04-24T17:06:28;4.07;;;3.67;;
5026;SDS011;2532;52.480;13.354;2023-04-24T17:08:55;3.00;;;2.70;;
5026;SDS011;2532;52.480;13.354;2023-04-24T17:11:24;3.13;;;2.83;;
5026;SDS011;2532;52.480;13.354;2023-04-24T17:13:51;3.20;;;2.90;;
5026;SDS011;2532;52.480;13.354;2023-04-24T17:16:19;4.50;;;4.10;;
5026;SDS011;2532;52.480;13.354;2023-04-24T17:18:46;3.93;;;3.53;;
5026;SDS011;2532;52.480;13.354;2023-04-24T17:21:14;3.13;;;2.80;;
5026;SDS011;2532;52.480;13.354;2023-04-24T17:23:41;3.70;;;3.20;;
5026;SDS011;2532;52.480;13.354;2023-04-24T17:26:08;6.40;;;2.90;;
5026;SDS011;2532;52.480;13.354;2023-04-24T17:28:35;5.40;;;2.50;;
5026;SDS011;2532;52.480;13.354;2023-04-24T17:31:02;2.73;;;2.53;;
5026;SDS011;2532;52.480;13.354;2023-04-24T17:33:31;6.73;;;3.23;;
5026;SDS011;2532;52.480;13.354;2023-04-24T17:35:58;3.53;;;2.90;;
5026;SDS011;2532;52.480;13.354;2023-04-24T17:38:26;5.10;;;3.10;;
5026;SDS011;2532;52.480;13.354;2023-04-24T17:40:53;3.20;;;2.90;;
5026;SDS011;2532;52.480;13.354;2023-04-24T17:43:20;4.20;;;2.83;;
5026;SDS011;2532;52.480;13.354;2023-04-24T17:45:49;3.80;;;3.40;;
5026;SDS011;2532;52.480;13.354;2023-04-24T17:48:17;3.20;;;2.90;;
5026;SDS011;2532;52.480;13.354;2023-04-24T17:50:45;3.40;;;3.10;;
5026;SDS011;2532;52.480;13.354;2023-04-24T17:53:12;10.93;;;3.60;;
5026;SDS011;2532;52.480;13.354;2023-04-24T17:55:40;5.27;;;3.00;;
5026;SDS011;2532;52.480;13.354;2023-04-24T17:58:07;7.90;;;3.00;;
5026;SDS011;2532;52.480;13.354;2023-04-24T18:00:34;3.17;;;2.87;;
5026;SDS011;2532;52.480;13.354;2023-04-24T18:03:02;4.67;;;3.07;;
5026;SDS011;2532;52.480;13.354;2023-04-24T18:05:30;4.10;;;3.70;;
5026;SDS011;2532;52.480;13.354;2023-04-24T18:08:01;4.63;;;2.70;;
5026;SDS011;2532;52.480;13.354;2023-04-24T18:10:29;3.13;;;2.83;;
5026;SDS011;2532;52.480;13.354;2023-04-24T18:12:57;3.73;;;3.43;;
5026;SDS011;2532;52.480;13.354;2023-04-24T18:15:24;6.07;;;3.60;;
5026;SDS011;2532;52.480;13.354;2023-04-24T18:17:51;3.10;;;2.67;;
5026;SDS011;2532;52.480;13.354;2023-04-24T18:20:18;4.40;;;4.00;;
5026;SDS011;2532;52.480;13.354;2023-04-24T18:22:46;5.53;;;3.30;;
5026;SDS011;2532;52.480;13.354;2023-04-24T18:25:14;6.67;;;5.40;;
5026;SDS011;2532;52.480;13.354;2023-04-24T18:27:41;3.67;;;3.37;;
5026;SDS011;2532;52.480;13.354;2023-04-24T18:30:09;3.33;;;3.00;;
5026;SDS011;2532;52.480;13.354;2023-04-24T18:32:36;3.87;;;3.47;;
5026;SDS011;2532;52.480;13.354;2023-04-24T18:35:03;3.73;;;3.10;;
5026;SDS011;2532;52.480;13.354;2023-04-24T18:37:31;3.20;;;2.90;;
5026;SDS011;2532;52.480;13.354;2023-04-24T18:39:58;3.20;;;2.90;;
5026;SDS011;2532;52.480;13.354;2023-04-24T18:42:26;3.10;;;2.80;;
5026;SDS011;2532;52.480;13.354;2023-04-24T18:44:53;3.10;;;2.77;;
5026;SDS011;2532;52.480;13.354;2023-04-24T18:47:25;6.63;;;2.87;;
5026;SDS011;2532;52.480;13.354;2023-04-24T18:49:52;2.70;;;2.50;;
5026;SDS011;2532;52.480;13.354;2023-04-24T18:52:19;2.53;;;2.00;;
5026;SDS011;2532;52.480;13.354;2023-04-24T18:54:46;3.67;;;2.40;;
5026;SDS011;2532;52.480;13.354;2023-04-24T18:57:13;2.50;;;2.30;;
5026;SDS011;2532;52.480;13.354;2023-04-24T18:59:42;3.10;;;2.80;;
5026;SDS011;2532;52.480;13.354;2023-04-24T19:02:09;2.57;;;2.30;;
5026;SDS011;2532;52.480;13.354;2023-04-24T19:04:36;2.50;;;2.30;;
5026;SDS011;2532;52.480;13.354;2023-04-24T19:07:03;3.67;;;2.87;;